Marshall, MN (56258)

5:32 AM CST on December 06, 2016 (GMT -0600)
Samuel Luth. School | | Change Station
Active Advisory: Wind Advisory

Elev 1145 ft 44.46 °N, 95.77 °W | Updated 2 seconds ago

Overcast
Overcast
17.1 °F
Feels Like 3 °F
N
15.0
Wind Variable Wind from WSW
Gusts 33.0 mph

Today
High -- | Low -- °F
--% Chance of Precip.
Yesterday
High -- | Low -- °F
Precip. -- in
Pressure 29.81 in
Visibility 10.0 miles
Clouds Overcast 2200 ft
Windchill 3 °F
Dew Point 11 °F
Humidity 77%
Rainfall 0.00 in
Snow Depth Not available.
7:45 AM 4:43 PM
Waxing Crescent, 41% visible
METAR KMML 061056Z AUTO 27017G27KT 10SM OVC022 M09/M12 A2976 RMK AO2 PK WND 28028/1045 SNB33E46 SLP095 P0000 T10891122 FZRANO
Pressure 29.81 in
Visibility 10.0 miles
Clouds Overcast 2200 ft
Windchill 3 °F
Dew Point 11 °F
Humidity 77%
Rainfall 0.00 in
Snow Depth Not available.
7:45 AM 4:43 PM
Waxing Crescent, 41% visible
METAR KMML 061056Z AUTO 27017G27KT 10SM OVC022 M09/M12 A2976 RMK AO2 PK WND 28028/1045 SNB33E46 SLP095 P0000 T10891122 FZRANO

10-Day Weather Forecast

Almanac

Astronomy

Dec. 06, 2016 Rise Set
Actual Time
Civil Twilight
Nautical Twilight
Astronomical Twilight
Moon
Length of Visible Light
Length of Day
Tomorrow will be .
, % of the Moon is Illuminated

Today's Extremes

State Highs State Lows

Community

WunderPhotos

Upload Photos

1,955,935 photos uploaded!

WunderBlog® & News

Nearby

Air Quality

  Air Quality AQ Index Pollutant
Not available.

Snow Depth

Station Depth Elevation

Earthquake Activity

City Distance Mag. Time & Date
Minimum magnitude displayed is 2.5.

Coastal Water Temperatures

Place Temperature

Stations

Nearby Weather Stations

Station Location Temp. Windchill Dew Point Humidity Wind Precip. Elev Updated Type
                   

Watches & Warnings

Wind Advisory
Issued: 3:36 AM CST Dec. 6, 2016 – National Weather Service

... Wind Advisory in effect from 9 am this morning to 9 PM CST
this evening...

The National Weather Service in Sioux Falls has issued a Wind
Advisory... which is in effect from 9 am this morning to 9 PM CST
this evening.

* Timing... strong northwest winds will develop by mid morning and
remain strong through mid evening.

* Weather conditions... northwest winds will average 25 to 35
mph... with gusts as high as 45 mph.

Precautionary/preparedness actions...

A Wind Advisory is issued when sustained winds are forecast to be
31 to 39 mph or gusts will range between 46 and 57 mph. Winds of
these magnitudes may cause minor property damage without extra
precautions. Motorists in high profile vehicles should use
caution until the winds subside.